Aberdeen, California
Current Conditions -  °F | °C
As of 4:56 PM on Friday 28 Nov 2014 (Local Time) from KBIH Reporting Station
Clear Clear  
Wind Chill: 50°   Ceiling: Unl
Heat Index: 50°   Visibility: 10mi
Dew Point: 14°   Wind: 0mph
Humidity: 24%   Direction: NA
Pressure: 29.9"   Gusts: NA
Location:  36.9237°N, 117.897°W
Report Text: KBIH 290056Z AUTO 00000KT 10SM CLR 10/M10 A2990 RMK AO2 SLP120 T01001100
Loading
Personal Weather Stations






























Interactive Weather Map New forecast layout! Learn more

10-Day Weather Forecast

Advertisements
Track Severe Weather on mobile